createdAt,value
2023-04-09T00:02:14.551Z,100242.56
2023-04-09T00:04:41.313Z,100245.94
2023-04-09T00:07:08.090Z,100246.22
2023-04-09T00:09:34.844Z,100244.09
2023-04-09T00:12:02.158Z,100247.78
2023-04-09T00:14:29.070Z,100237.91
2023-04-09T00:16:56.144Z,100242.59
2023-04-09T00:19:22.885Z,100238.72
2023-04-09T00:21:49.655Z,100232.19
2023-04-09T00:24:16.361Z,100238.97
2023-04-09T00:26:43.144Z,100238.50
2023-04-09T00:29:09.841Z,100237.47
2023-04-09T00:31:36.622Z,100239.28
2023-04-09T00:34:03.347Z,100244.25
2023-04-09T00:36:30.956Z,100236.16
2023-04-09T00:38:58.733Z,100236.94
2023-04-09T00:41:25.468Z,100235.34
2023-04-09T00:43:52.211Z,100236.91
2023-04-09T00:46:19.020Z,100241.56
2023-04-09T00:48:45.804Z,100237.41
2023-04-09T00:51:12.506Z,100242.34
2023-04-09T00:53:39.276Z,100238.41
2023-04-09T00:56:06.295Z,100246.22
2023-04-09T00:58:33.222Z,100244.16
2023-04-09T01:00:59.995Z,100239.44
2023-04-09T01:03:26.853Z,100247.78
2023-04-09T01:06:12.050Z,100237.84
2023-04-09T01:08:56.074Z,100237.84
2023-04-09T01:11:32.588Z,100237.06
2023-04-09T01:14:38.002Z,100236.28
2023-04-09T01:17:14.017Z,100235.75
2023-04-09T01:19:50.611Z,100234.75
2023-04-09T01:22:30.648Z,100229.78
2023-04-09T01:25:21.062Z,100235.28
2023-04-09T01:27:56.354Z,100235.00
2023-04-09T01:30:23.193Z,100233.69
2023-04-09T01:32:50.175Z,100233.19
2023-04-09T01:35:17.069Z,100238.94
2023-04-09T01:37:43.937Z,100231.94
2023-04-09T01:40:11.133Z,100229.59
2023-04-09T01:42:38.019Z,100223.13
2023-04-09T01:45:06.313Z,100239.78
2023-04-09T01:47:33.111Z,100238.47
2023-04-09T01:50:00.200Z,100237.94
2023-04-09T01:52:27.244Z,100233.50
2023-04-09T01:54:53.982Z,100244.69
2023-04-09T01:57:20.708Z,100238.72
2023-04-09T01:59:47.444Z,100231.38
2023-04-09T02:02:19.389Z,100239.72
2023-04-09T02:04:51.716Z,100231.16
2023-04-09T02:07:33.505Z,100242.03
2023-04-09T02:10:00.907Z,100242.59
2023-04-09T02:12:29.477Z,100234.28
2023-04-09T02:14:56.430Z,100229.59
2023-04-09T02:17:23.180Z,100236.91
2023-04-09T02:19:50.079Z,100231.69
2023-04-09T02:22:17.235Z,100232.75
2023-04-09T02:24:44.275Z,100230.69
2023-04-09T02:27:11.041Z,100229.91
2023-04-09T02:29:41.898Z,100222.88
2023-04-09T02:32:08.753Z,100223.13
2023-04-09T02:34:35.584Z,100226.25
2023-04-09T02:37:02.403Z,100221.53
2023-04-09T02:39:29.104Z,100224.91
2023-04-09T02:41:56.310Z,100230.13
2023-04-09T02:44:23.059Z,100227.53
2023-04-09T02:46:51.416Z,100226.00
2023-04-09T02:49:18.437Z,100222.88
2023-04-09T02:51:45.117Z,100216.66
2023-04-09T02:54:11.891Z,100223.66
2023-04-09T02:56:38.702Z,100214.03
2023-04-09T02:59:05.469Z,100220.81
2023-04-09T03:01:32.258Z,100225.22
2023-04-09T03:04:00.448Z,100229.66
2023-04-09T03:06:27.329Z,100231.75
2023-04-09T03:08:54.087Z,100232.53
2023-04-09T03:11:20.806Z,100232.25
2023-04-09T03:13:47.581Z,100228.63
2023-04-09T03:16:14.272Z,100227.84
2023-04-09T03:18:41.043Z,100227.06
2023-04-09T03:21:08.400Z,100231.00
2023-04-09T03:23:35.360Z,100226.00
2023-04-09T03:26:03.324Z,100231.47
2023-04-09T03:28:30.065Z,100236.16
2023-04-09T03:30:56.912Z,100227.53
2023-04-09T03:33:24.152Z,100234.31
2023-04-09T03:35:51.287Z,100231.72
2023-04-09T03:38:18.055Z,100233.28
2023-04-09T03:40:44.780Z,100228.56
2023-04-09T03:43:11.440Z,100230.13
2023-04-09T03:45:38.138Z,100235.34
2023-04-09T03:48:04.970Z,100226.25
2023-04-09T03:50:31.715Z,100230.69
2023-04-09T03:52:58.529Z,100232.50
2023-04-09T03:55:25.307Z,100235.88
2023-04-09T03:57:52.015Z,100238.19
2023-04-09T04:00:19.006Z,100245.03
2023-04-09T04:02:46.240Z,100245.59
2023-04-09T04:05:13.054Z,100246.09
2023-04-09T04:07:40.030Z,100247.13
2023-04-09T04:10:07.273Z,100242.69
2023-04-09T04:12:34.011Z,100247.38
2023-04-09T04:15:01.460Z,100248.69
2023-04-09T04:17:28.182Z,100247.94
2023-04-09T04:19:54.895Z,100246.88
2023-04-09T04:22:21.830Z,100247.41
2023-04-09T04:24:49.110Z,100244.25
2023-04-09T04:27:16.090Z,100245.31
2023-04-09T04:29:42.794Z,100252.09
2023-04-09T04:32:09.518Z,100251.03
2023-04-09T04:34:36.292Z,100252.06
2023-04-09T04:37:02.996Z,100255.41
2023-04-09T04:39:31.172Z,100256.41
2023-04-09T04:41:57.930Z,100262.41
2023-04-09T04:44:24.663Z,100262.09
2023-04-09T04:46:51.415Z,100265.78
2023-04-09T04:49:18.122Z,100263.41
2023-04-09T04:51:44.854Z,100264.94
2023-04-09T04:54:11.628Z,100263.34
2023-04-09T04:56:38.348Z,100270.13
2023-04-09T04:59:05.303Z,100274.28
2023-04-09T05:01:32.207Z,100267.97
2023-04-09T05:03:59.167Z,100271.09
2023-04-09T05:06:27.966Z,100269.00
2023-04-09T05:08:58.000Z,100271.03
2023-04-09T05:11:25.626Z,100269.91
2023-04-09T05:13:52.392Z,100275.09
2023-04-09T05:16:20.107Z,100275.31
2023-04-09T05:18:47.408Z,100269.81
2023-04-09T05:21:14.147Z,100272.94
2023-04-09T05:23:40.891Z,100279.72
2023-04-09T05:26:07.629Z,100274.97
2023-04-09T05:28:34.339Z,100279.69
2023-04-09T05:31:01.714Z,100285.34
2023-04-09T05:33:28.445Z,100285.28
2023-04-09T05:35:55.236Z,100286.03
2023-04-09T05:38:22.295Z,100290.13
2023-04-09T05:40:49.021Z,100287.50
2023-04-09T05:43:15.919Z,100283.28
2023-04-09T05:45:42.821Z,100296.28
2023-04-09T05:48:09.691Z,100293.91
2023-04-09T05:50:51.171Z,100300.09
2023-04-09T05:53:20.930Z,100301.09
2023-04-09T05:55:49.298Z,100299.97
2023-04-09T05:58:18.693Z,100303.53
2023-04-09T06:00:45.640Z,100309.75
2023-04-09T06:03:12.582Z,100307.06
2023-04-09T06:05:39.436Z,100305.75
2023-04-09T06:08:06.236Z,100304.88
2023-04-09T06:10:33.134Z,100308.19
2023-04-09T06:12:59.928Z,100307.25
2023-04-09T06:15:26.841Z,100313.44
2023-04-09T06:17:53.668Z,100313.84
2023-04-09T06:20:21.199Z,100314.63
2023-04-09T06:22:48.039Z,100310.09
2023-04-09T06:25:14.742Z,100313.91
2023-04-09T06:27:41.551Z,100307.47
2023-04-09T06:30:09.003Z,100313.16
2023-04-09T06:32:46.829Z,100313.38
2023-04-09T06:35:20.604Z,100310.34
2023-04-09T06:37:47.288Z,100313.88
2023-04-09T06:40:14.411Z,100323.91
2023-04-09T06:42:41.102Z,100324.81
2023-04-09T06:45:08.775Z,100323.88
2023-04-09T06:47:36.269Z,100319.72
2023-04-09T06:50:03.528Z,100317.09
2023-04-09T06:52:30.367Z,100322.31
2023-04-09T06:54:57.050Z,100326.84
2023-04-09T06:57:23.838Z,100322.69
2023-04-09T06:59:50.506Z,100320.19
2023-04-09T07:02:17.486Z,100323.78
2023-04-09T07:04:44.429Z,100325.75
2023-04-09T07:07:12.676Z,100328.09
2023-04-09T07:09:39.612Z,100335.63
2023-04-09T07:12:06.480Z,100327.50
2023-04-09T07:14:33.228Z,100332.16
2023-04-09T07:16:59.927Z,100337.03
2023-04-09T07:19:26.656Z,100341.13
2023-04-09T07:21:53.321Z,100344.19
2023-04-09T07:24:19.961Z,100349.34
2023-04-09T07:26:47.101Z,100348.31
2023-04-09T07:29:13.893Z,100345.09
2023-04-09T07:31:41.160Z,100350.84
2023-04-09T07:34:07.978Z,100348.03
2023-04-09T07:36:34.749Z,100346.38
2023-04-09T07:39:01.543Z,100352.31
2023-04-09T07:41:28.269Z,100344.63
2023-04-09T07:43:54.971Z,100351.50
2023-04-09T07:46:22.037Z,100347.53
2023-04-09T07:48:50.424Z,100355.19
2023-04-09T07:51:17.461Z,100352.38
2023-04-09T07:53:44.229Z,100353.56
2023-04-09T07:56:11.215Z,100358.50
2023-04-09T07:58:40.600Z,100350.25
2023-04-09T08:01:07.323Z,100352.75
2023-04-09T08:03:35.635Z,100358.13
2023-04-09T08:06:02.492Z,100357.88
2023-04-09T08:08:29.174Z,100358.13
2023-04-09T08:10:55.881Z,100368.69
2023-04-09T08:13:25.690Z,100365.34
2023-04-09T08:15:52.421Z,100362.13
2023-04-09T08:18:19.273Z,100366.94
2023-04-09T08:20:46.243Z,100372.72
2023-04-09T08:23:12.989Z,100370.31
2023-04-09T08:25:39.751Z,100377.94
2023-04-09T08:28:06.522Z,100372.84
2023-04-09T08:30:34.270Z,100378.31
2023-04-09T08:33:02.158Z,100390.41
2023-04-09T08:35:31.157Z,100384.66
2023-04-09T08:37:58.803Z,100380.47
2023-04-09T08:40:25.597Z,100383.75
2023-04-09T08:42:57.985Z,100390.09
2023-04-09T08:45:24.842Z,100385.13
2023-04-09T08:47:52.005Z,100390.25
2023-04-09T08:50:19.548Z,100394.53
2023-04-09T08:52:48.436Z,100397.97
2023-04-09T08:55:15.336Z,100404.31
2023-04-09T08:57:42.520Z,100397.00
2023-04-09T09:00:09.670Z,100397.59
2023-04-09T09:02:36.822Z,100405.38
2023-04-09T09:05:03.724Z,100408.28
2023-04-09T09:07:31.313Z,100411.25
2023-04-09T09:10:05.159Z,100412.13
2023-04-09T09:12:32.499Z,100412.22
2023-04-09T09:14:59.277Z,100399.25
2023-04-09T09:17:26.605Z,100408.47
2023-04-09T09:19:53.406Z,100410.31
2023-04-09T09:22:20.613Z,100407.22
2023-04-09T09:24:51.650Z,100408.31
2023-04-09T09:27:36.570Z,100420.53
2023-04-09T09:30:05.623Z,100411.16
2023-04-09T09:32:33.258Z,100416.53
2023-04-09T09:34:59.922Z,100412.59
2023-04-09T09:37:30.426Z,100403.41
2023-04-09T09:39:59.809Z,100406.31
2023-04-09T09:42:27.561Z,100406.97
2023-04-09T09:44:55.249Z,100412.16
2023-04-09T09:47:22.908Z,100407.19
2023-04-09T09:49:50.456Z,100407.44
2023-04-09T09:52:21.427Z,100405.78
2023-04-09T09:54:52.793Z,100400.25
2023-04-09T09:57:22.237Z,100402.63
2023-04-09T09:59:54.999Z,100400.41
2023-04-09T10:02:24.420Z,100399.97
2023-04-09T10:04:52.993Z,100398.44
2023-04-09T10:07:21.549Z,100397.97
2023-04-09T10:09:50.704Z,100397.31
2023-04-09T10:12:18.376Z,100402.56
2023-04-09T10:14:45.246Z,100400.06
2023-04-09T10:17:12.084Z,100398.16
2023-04-09T10:19:42.891Z,100404.63
2023-04-09T10:22:11.874Z,100396.06
2023-04-09T10:24:38.616Z,100398.00
2023-04-09T10:27:17.192Z,100393.75
2023-04-09T10:29:48.819Z,100390.66
2023-04-09T10:32:25.064Z,100395.06
2023-04-09T10:34:52.632Z,100400.25
2023-04-09T10:37:27.449Z,100395.31
2023-04-09T10:39:54.433Z,100392.75
2023-04-09T10:42:33.165Z,100395.00
2023-04-09T10:45:14.497Z,100390.16
2023-04-09T10:47:43.294Z,100400.31
2023-04-09T10:50:28.006Z,100391.81
2023-04-09T10:52:57.346Z,100389.81
2023-04-09T10:55:39.598Z,100393.06
2023-04-09T10:58:09.840Z,100392.41
2023-04-09T11:00:40.340Z,100392.34
2023-04-09T11:03:21.819Z,100391.75
2023-04-09T11:05:52.637Z,100402.91
2023-04-09T11:08:19.955Z,100395.94
2023-04-09T11:10:49.714Z,100391.31
2023-04-09T11:13:19.964Z,100380.88
2023-04-09T11:15:46.789Z,100391.28
2023-04-09T11:18:33.866Z,100391.44
2023-04-09T11:21:03.160Z,100390.31
2023-04-09T11:23:29.966Z,100392.66
2023-04-09T11:25:56.800Z,100393.28
2023-04-09T11:28:24.041Z,100391.66
2023-04-09T11:30:51.562Z,100384.75
2023-04-09T11:33:20.079Z,100386.81
2023-04-09T11:35:47.613Z,100379.56
2023-04-09T11:38:14.443Z,100379.25
2023-04-09T11:40:48.741Z,100381.00
2023-04-09T11:43:16.720Z,100376.59
2023-04-09T11:45:44.322Z,100377.13
2023-04-09T11:48:12.956Z,100380.94
2023-04-09T11:50:39.862Z,100379.59
2023-04-09T11:53:21.636Z,100379.06
2023-04-09T11:55:51.416Z,100374.91
2023-04-09T11:58:18.516Z,100377.38
2023-04-09T12:00:45.715Z,100378.44
2023-04-09T12:03:12.861Z,100379.97
2023-04-09T12:05:41.680Z,100372.38
2023-04-09T12:08:10.409Z,100377.47
2023-04-09T12:10:38.265Z,100376.94
2023-04-09T12:13:10.466Z,100377.06
2023-04-09T12:15:39.072Z,100380.63
2023-04-09T12:18:09.458Z,100376.69
2023-04-09T12:20:39.413Z,100371.59
2023-04-09T12:23:07.165Z,100373.66
2023-04-09T12:25:36.691Z,100381.44
2023-04-09T12:28:04.662Z,100377.59
2023-04-09T12:30:32.386Z,100377.41
2023-04-09T12:32:59.449Z,100374.34
2023-04-09T12:35:26.953Z,100369.28
2023-04-09T12:37:53.863Z,100362.94
2023-04-09T12:40:21.029Z,100365.50
2023-04-09T12:42:48.200Z,100364.41
2023-04-09T12:45:16.711Z,100365.59
2023-04-09T12:47:44.203Z,100357.34
2023-04-09T12:50:12.182Z,100368.81
2023-04-09T12:52:39.059Z,100363.06
2023-04-09T12:55:06.628Z,100369.63
2023-04-09T12:57:33.572Z,100366.75
2023-04-09T13:00:00.482Z,100372.03
2023-04-09T13:02:27.381Z,100368.69
2023-04-09T13:04:54.253Z,100369.34
2023-04-09T13:07:21.137Z,100363.88
2023-04-09T13:09:50.405Z,100358.09
2023-04-09T13:12:17.387Z,100354.56
2023-04-09T13:14:46.582Z,100358.97
2023-04-09T13:17:13.934Z,100357.63
2023-04-09T13:19:42.716Z,100357.22
2023-04-09T13:22:10.478Z,100354.75
2023-04-09T13:24:38.196Z,100350.41
2023-04-09T13:27:06.635Z,100356.88
2023-04-09T13:29:33.311Z,100350.34
2023-04-09T13:32:02.622Z,100352.72
2023-04-09T13:34:29.429Z,100352.06
2023-04-09T13:36:56.402Z,100342.66
2023-04-09T13:39:23.157Z,100354.34
2023-04-09T13:41:49.908Z,100354.13
2023-04-09T13:44:16.747Z,100343.28
2023-04-09T13:46:43.574Z,100348.63
2023-04-09T13:49:10.326Z,100342.44
2023-04-09T13:51:37.166Z,100332.41
2023-04-09T13:54:05.910Z,100329.09
2023-04-09T13:56:32.938Z,100330.09
2023-04-09T13:58:59.670Z,100327.63
2023-04-09T14:01:28.236Z,100310.88
2023-04-09T14:03:55.787Z,100312.91
2023-04-09T14:06:22.841Z,100305.19
2023-04-09T14:08:49.544Z,100298.56
2023-04-09T14:11:16.813Z,100309.22
2023-04-09T14:13:43.720Z,100299.53
2023-04-09T14:16:10.642Z,100298.16
2023-04-09T14:18:37.447Z,100298.28
2023-04-09T14:21:04.361Z,100299.25
2023-04-09T14:23:31.126Z,100300.00
2023-04-09T14:25:57.870Z,100298.28
2023-04-09T14:28:24.684Z,100286.19
2023-04-09T14:30:51.458Z,100291.47
2023-04-09T14:33:18.184Z,100289.81
2023-04-09T14:35:44.941Z,100287.94
2023-04-09T14:38:11.943Z,100287.28
2023-04-09T14:40:38.693Z,100281.09
2023-04-09T14:43:05.479Z,100278.66
2023-04-09T14:45:32.313Z,100266.56
2023-04-09T14:47:59.101Z,100276.16
2023-04-09T14:50:26.413Z,100283.16
2023-04-09T14:52:53.235Z,100281.78
2023-04-09T14:55:19.953Z,100275.03
2023-04-09T14:57:46.735Z,100281.44
2023-04-09T15:00:13.801Z,100281.81
2023-04-09T15:02:41.459Z,100278.59
2023-04-09T15:05:08.943Z,100282.34
2023-04-09T15:07:35.759Z,100277.94
2023-04-09T15:10:02.960Z,100276.66
2023-04-09T15:12:32.711Z,100270.88
2023-04-09T15:14:59.476Z,100266.94
2023-04-09T15:17:26.533Z,100266.88
2023-04-09T15:19:54.214Z,100268.53
2023-04-09T15:22:21.405Z,100270.22
2023-04-09T15:24:48.104Z,100273.31
2023-04-09T15:27:14.924Z,100272.66
2023-04-09T15:29:41.752Z,100267.63
2023-04-09T15:32:08.459Z,100271.50
2023-04-09T15:34:35.383Z,100269.31
2023-04-09T15:37:02.129Z,100263.50
2023-04-09T15:39:28.868Z,100272.13
2023-04-09T15:41:58.939Z,100262.44
2023-04-09T15:44:26.028Z,100266.19
2023-04-09T15:46:52.884Z,100269.97
2023-04-09T15:49:20.091Z,100271.38
2023-04-09T15:51:46.844Z,100266.03
2023-04-09T15:54:13.557Z,100263.78
2023-04-09T15:56:40.445Z,100263.25
2023-04-09T15:59:08.435Z,100265.63
2023-04-09T16:01:36.365Z,100266.03
2023-04-09T16:04:04.789Z,100265.31
2023-04-09T16:06:31.939Z,100269.88
2023-04-09T16:08:58.661Z,100263.22
2023-04-09T16:11:26.010Z,100267.72
2023-04-09T16:13:53.195Z,100269.31
2023-04-09T16:16:20.762Z,100271.53
2023-04-09T16:18:47.653Z,100271.91
2023-04-09T16:21:14.493Z,100269.16
2023-04-09T16:23:41.512Z,100274.75
2023-04-09T16:26:08.198Z,100282.22
2023-04-09T16:28:36.229Z,100278.19
2023-04-09T16:31:03.198Z,100279.13
2023-04-09T16:33:30.230Z,100278.66
2023-04-09T16:35:56.990Z,100276.38
2023-04-09T16:38:24.676Z,100278.38
2023-04-09T16:40:51.369Z,100275.91
2023-04-09T16:43:18.058Z,100277.16
2023-04-09T16:45:44.775Z,100279.31
2023-04-09T16:48:12.685Z,100281.03
2023-04-09T16:50:40.367Z,100280.09
2023-04-09T16:53:07.637Z,100277.03
2023-04-09T16:55:35.060Z,100276.25
2023-04-09T16:58:01.805Z,100276.88
2023-04-09T17:00:28.645Z,100276.56
2023-04-09T17:02:57.646Z,100277.19
2023-04-09T17:05:25.018Z,100271.94
2023-04-09T17:07:53.554Z,100273.31
2023-04-09T17:10:20.775Z,100270.84
2023-04-09T17:12:48.385Z,100275.00
2023-04-09T17:15:15.406Z,100271.75
2023-04-09T17:17:43.700Z,100270.78
2023-04-09T17:20:11.382Z,100271.72
2023-04-09T17:22:39.288Z,100273.41
2023-04-09T17:25:06.510Z,100266.75
2023-04-09T17:27:33.360Z,100269.81
2023-04-09T17:30:00.194Z,100275.81
2023-04-09T17:32:27.629Z,100273.03
2023-04-09T17:34:54.412Z,100272.72
2023-04-09T17:37:21.266Z,100275.47
2023-04-09T17:39:48.077Z,100280.41
2023-04-09T17:42:14.946Z,100275.28
2023-04-09T17:44:43.841Z,100276.03
2023-04-09T17:47:12.304Z,100275.41
2023-04-09T17:49:39.561Z,100280.47
2023-04-09T17:52:06.523Z,100284.31
2023-04-09T17:54:38.014Z,100288.44
2023-04-09T17:57:07.178Z,100279.16
2023-04-09T17:59:38.135Z,100290.28
2023-04-09T18:02:05.004Z,100288.53
2023-04-09T18:04:33.626Z,100297.31
2023-04-09T18:07:00.950Z,100303.78
2023-04-09T18:09:27.662Z,100301.09
2023-04-09T18:11:56.355Z,100305.38
2023-04-09T18:14:23.673Z,100299.78
2023-04-09T18:16:50.671Z,100305.03
2023-04-09T18:19:17.467Z,100305.94
2023-04-09T18:21:44.236Z,100305.75
2023-04-09T18:24:10.960Z,100309.84
2023-04-09T18:26:37.745Z,100315.50
2023-04-09T18:29:04.550Z,100315.41
2023-04-09T18:31:31.286Z,100315.84
2023-04-09T18:33:58.051Z,100323.63
2023-04-09T18:36:24.769Z,100325.19
2023-04-09T18:38:51.974Z,100321.19
2023-04-09T18:41:26.130Z,100325.09
2023-04-09T18:43:53.422Z,100324.34
2023-04-09T18:46:20.107Z,100322.50
2023-04-09T18:48:47.128Z,100319.09
2023-04-09T18:51:14.516Z,100322.25
2023-04-09T18:53:41.968Z,100326.91
2023-04-09T18:56:09.080Z,100331.53
2023-04-09T18:58:36.430Z,100332.47
2023-04-09T19:01:11.199Z,100332.41
2023-04-09T19:03:39.160Z,100339.44
2023-04-09T19:06:18.209Z,100335.75
2023-04-09T19:08:45.820Z,100328.59
2023-04-09T19:11:13.175Z,100334.16
2023-04-09T19:13:39.997Z,100335.13
2023-04-09T19:16:09.288Z,100334.19
2023-04-09T19:18:37.185Z,100333.81
2023-04-09T19:21:05.104Z,100336.00
2023-04-09T19:23:34.145Z,100339.22
2023-04-09T19:26:01.662Z,100341.47
2023-04-09T19:28:28.677Z,100329.53
2023-04-09T19:30:55.649Z,100336.41
2023-04-09T19:33:23.684Z,100338.09
2023-04-09T19:35:51.556Z,100334.25
2023-04-09T19:38:19.068Z,100334.28
2023-04-09T19:40:46.235Z,100332.00
2023-04-09T19:43:13.184Z,100328.69
2023-04-09T19:45:40.812Z,100325.63
2023-04-09T19:48:07.757Z,100330.91
2023-04-09T19:50:38.805Z,100320.81
2023-04-09T19:53:06.039Z,100320.91
2023-04-09T19:55:35.925Z,100326.13
2023-04-09T19:58:03.190Z,100331.34
2023-04-09T20:00:30.556Z,100332.69
2023-04-09T20:02:57.631Z,100332.47
2023-04-09T20:05:24.820Z,100330.41
2023-04-09T20:07:52.884Z,100330.41
2023-04-09T20:10:20.047Z,100334.84
2023-04-09T20:12:47.920Z,100334.38
2023-04-09T20:15:15.626Z,100332.03
2023-04-09T20:17:42.701Z,100338.81
2023-04-09T20:20:09.720Z,100333.59
2023-04-09T20:22:36.471Z,100334.94
2023-04-09T20:25:03.205Z,100344.56
2023-04-09T20:27:30.209Z,100334.16
2023-04-09T20:29:56.898Z,100336.22
2023-04-09T20:32:23.655Z,100331.03
2023-04-09T20:34:50.399Z,100334.69
2023-04-09T20:37:17.180Z,100333.69
2023-04-09T20:39:43.914Z,100331.88
2023-04-09T20:42:10.659Z,100338.63
2023-04-09T20:44:38.158Z,100335.25
2023-04-09T20:47:04.965Z,100336.53
2023-04-09T20:49:31.681Z,100336.81
2023-04-09T20:51:58.431Z,100334.97
2023-04-09T20:54:25.850Z,100330.81
2023-04-09T20:56:52.664Z,100331.59
2023-04-09T20:59:19.573Z,100330.31
2023-04-09T21:01:46.404Z,100335.53
2023-04-09T21:04:13.310Z,100338.38
2023-04-09T21:06:40.440Z,100343.59
2023-04-09T21:09:07.219Z,100336.84
2023-04-09T21:11:34.019Z,100340.50
2023-04-09T21:14:00.749Z,100345.44
2023-04-09T21:16:29.718Z,100341.28
2023-04-09T21:18:56.661Z,100340.25
2023-04-09T21:21:23.518Z,100338.94
2023-04-09T21:23:50.354Z,100342.56
2023-04-09T21:26:17.060Z,100335.53
2023-04-09T21:28:44.254Z,100335.31
2023-04-09T21:31:11.340Z,100343.13
2023-04-09T21:33:39.265Z,100335.59
2023-04-09T21:36:08.037Z,100330.66
2023-04-09T21:38:35.153Z,100329.63
2023-04-09T21:41:01.866Z,100333.56
2023-04-09T21:43:29.220Z,100330.72
2023-04-09T21:45:59.055Z,100328.66
2023-04-09T21:48:26.532Z,100332.28
2023-04-09T21:50:53.306Z,100335.44
2023-04-09T21:53:20.061Z,100330.72
2023-04-09T21:55:47.186Z,100332.59
2023-04-09T21:58:13.942Z,100337.53
2023-04-09T22:00:40.874Z,100334.97
2023-04-09T22:03:07.867Z,100330.28
2023-04-09T22:05:34.855Z,100332.09
2023-04-09T22:08:01.655Z,100334.47
2023-04-09T22:10:28.464Z,100330.84
2023-04-09T22:12:55.778Z,100339.41
2023-04-09T22:15:22.746Z,100343.34
2023-04-09T22:17:49.631Z,100336.31
2023-04-09T22:20:16.668Z,100338.13
2023-04-09T22:22:43.906Z,100336.56
2023-04-09T22:25:11.682Z,100340.22
2023-04-09T22:27:38.499Z,100342.28
2023-04-09T22:30:06.574Z,100342.84
2023-04-09T22:32:33.526Z,100339.19
2023-04-09T22:35:00.551Z,100347.78
2023-04-09T22:37:27.863Z,100336.84
2023-04-09T22:39:54.689Z,100345.44
2023-04-09T22:42:21.530Z,100349.09
2023-04-09T22:44:48.341Z,100342.34
2023-04-09T22:47:15.017Z,100342.34
2023-04-09T22:49:41.758Z,100340.00
2023-04-09T22:52:08.544Z,100342.34
2023-04-09T22:54:35.529Z,100340.25
2023-04-09T22:57:02.331Z,100337.63
2023-04-09T22:59:37.174Z,100336.09
2023-04-09T23:02:06.391Z,100342.09
2023-04-09T23:04:34.812Z,100344.16
2023-04-09T23:07:02.366Z,100337.66
2023-04-09T23:09:30.951Z,100341.81
2023-04-09T23:11:57.980Z,100343.91
2023-04-09T23:14:24.774Z,100327.25
2023-04-09T23:16:51.455Z,100343.94
2023-04-09T23:19:18.213Z,100333.78
2023-04-09T23:21:45.159Z,100332.75
2023-04-09T23:24:11.807Z,100336.41
2023-04-09T23:26:38.553Z,100329.66
2023-04-09T23:29:05.291Z,100333.53
2023-04-09T23:31:32.171Z,100331.97
2023-04-09T23:33:59.011Z,100338.75
2023-04-09T23:36:26.105Z,100331.72
2023-04-09T23:38:52.848Z,100331.97
2023-04-09T23:41:19.695Z,100325.22
2023-04-09T23:43:46.833Z,100328.84
2023-04-09T23:46:13.599Z,100325.72
2023-04-09T23:48:40.412Z,100329.66
2023-04-09T23:51:07.197Z,100322.09
2023-04-09T23:53:33.897Z,100322.09
2023-04-09T23:56:00.702Z,100327.81
2023-04-09T23:58:27.717Z,100327.03
